EJA823 KMEM-KIND
Flight info
| Callsign | EJA823 |
|---|---|
| Flight time | N/A |
| Altitude | 45000 |
| Route | CRSON7 HUMMS PXV EMBRR SMUKE3 |
| Aircraft | C700/M-SBDGHM1RWXY/LB2 |
Departure
| Time | 2026-05-06 02:39 |
|---|---|
| Airport | Memphis International Airport (KMEM) |
Arrival
| Time | N/A |
|---|---|
| Airport | Indianapolis International Airport (KIND) |
| Time | Latitude | Longitude | Altitude | Speed | Heading |
|---|---|---|---|---|---|
| 2026-05-06 02:12 | 35.05478 | -89.98150 | 295 ft | 0 kts | 91° |
| 2026-05-06 02:28 | 35.05479 | -89.98149 | 291 ft | 1 kts | 74° |
| 2026-05-06 02:28 | 35.05498 | -89.98173 | 293 ft | 9 kts | 280° |
| 2026-05-06 02:28 | 35.05497 | -89.98291 | 285 ft | 17 kts | 271° |
| 2026-05-06 02:29 | 35.05530 | -89.98364 | 283 ft | 9 kts | 325° |
| 2026-05-06 02:29 | 35.05572 | -89.98432 | 282 ft | 13 kts | 278° |
| 2026-05-06 02:29 | 35.05572 | -89.98447 | 282 ft | 0 kts | 268° |
| 2026-05-06 02:29 | 35.05572 | -89.98448 | 281 ft | 1 kts | 268° |
| 2026-05-06 02:30 | 35.05565 | -89.98486 | 281 ft | 8 kts | 245° |
| 2026-05-06 02:30 | 35.05525 | -89.98511 | 280 ft | 9 kts | 180° |
| 2026-05-06 02:30 | 35.05457 | -89.98510 | 280 ft | 12 kts | 180° |
| 2026-05-06 02:30 | 35.05370 | -89.98510 | 281 ft | 13 kts | 181° |
| 2026-05-06 02:31 | 35.05269 | -89.98512 | 278 ft | 17 kts | 180° |
| 2026-05-06 02:31 | 35.05193 | -89.98513 | 287 ft | 6 kts | 181° |
| 2026-05-06 02:31 | 35.05136 | -89.98518 | 291 ft | 10 kts | 190° |
| 2026-05-06 02:31 | 35.05070 | -89.98544 | 289 ft | 8 kts | 206° |
| 2026-05-06 02:32 | 35.05013 | -89.98578 | 290 ft | 11 kts | 208° |
| 2026-05-06 02:32 | 35.04962 | -89.98610 | 293 ft | 4 kts | 208° |
| 2026-05-06 02:32 | 35.04941 | -89.98636 | 293 ft | 0 kts | 237° |
| 2026-05-06 02:36 | 35.04940 | -89.98639 | 295 ft | 2 kts | 242° |
| 2026-05-06 02:36 | 35.04930 | -89.98671 | 293 ft | 0 kts | 249° |
| 2026-05-06 02:36 | 35.04930 | -89.98672 | 295 ft | 0 kts | 249° |
| 2026-05-06 02:37 | 35.04929 | -89.98673 | 294 ft | 1 kts | 249° |
| 2026-05-06 02:38 | 35.04906 | -89.98729 | 296 ft | 13 kts | 219° |
| 2026-05-06 02:38 | 35.04671 | -89.98740 | 294 ft | 74 kts | 179° |
| 2026-05-06 02:38 | 35.03823 | -89.98721 | 300 ft | 164 kts | 179° |
| 2026-05-06 02:38 | 35.02471 | -89.98679 | 522 ft | 220 kts | 178° |
| 2026-05-06 02:39 | 35.00881 | -89.98602 | 1090 ft | 221 kts | 179° |
| 2026-05-06 02:39 | 34.99437 | -89.98466 | 1577 ft | 195 kts | 175° |
| 2026-05-06 02:39 | 34.98169 | -89.97985 | 2754 ft | 183 kts | 167° |
| 2026-05-06 02:39 | 34.97022 | -89.97306 | 4226 ft | 193 kts | 163° |
| 2026-05-06 02:40 | 34.96207 | -89.96790 | 4995 ft | 202 kts | 162° |
| 2026-05-06 02:40 | 34.94973 | -89.95839 | 6306 ft | 219 kts | 149° |
| 2026-05-06 02:40 | 34.93613 | -89.93848 | 7909 ft | 244 kts | 126° |
| 2026-05-06 02:40 | 34.92987 | -89.91859 | 9144 ft | 259 kts | 107° |
| 2026-05-06 02:41 | 34.92812 | -89.89618 | 10299 ft | 271 kts | 94° |
| 2026-05-06 02:41 | 34.92756 | -89.88078 | 10987 ft | 278 kts | 95° |
| 2026-05-06 02:41 | 34.92687 | -89.85684 | 12009 ft | 288 kts | 88° |
| 2026-05-06 02:41 | 34.93093 | -89.83272 | 13038 ft | 295 kts | 67° |
| 2026-05-06 02:42 | 34.94011 | -89.81031 | 14012 ft | 297 kts | 52° |
| 2026-05-06 02:42 | 34.95183 | -89.78960 | 14955 ft | 294 kts | 39° |
| 2026-05-06 02:42 | 34.96688 | -89.77327 | 15913 ft | 286 kts | 23° |
| 2026-05-06 02:42 | 34.98407 | -89.76179 | 16860 ft | 276 kts | 8° |
| 2026-05-06 02:43 | 35.00192 | -89.75552 | 17826 ft | 264 kts | 354° |
| 2026-05-06 02:43 | 35.01982 | -89.75398 | 18682 ft | 253 kts | 343° |
| 2026-05-06 02:43 | 35.03750 | -89.75501 | 19501 ft | 255 kts | 342° |
| 2026-05-06 02:43 | 35.05533 | -89.75580 | 20310 ft | 258 kts | 343° |
| 2026-05-06 02:44 | 35.07345 | -89.75659 | 21118 ft | 261 kts | 343° |
| 2026-05-06 02:44 | 35.09169 | -89.75744 | 21914 ft | 263 kts | 343° |
| 2026-05-06 02:44 | 35.11010 | -89.75832 | 22700 ft | 266 kts | 343° |
| 2026-05-06 02:44 | 35.12845 | -89.75926 | 23453 ft | 268 kts | 343° |
| 2026-05-06 02:45 | 35.14716 | -89.76033 | 24101 ft | 271 kts | 343° |
| 2026-05-06 02:45 | 35.16616 | -89.76140 | 24723 ft | 274 kts | 343° |
| 2026-05-06 02:45 | 35.18538 | -89.76244 | 25401 ft | 277 kts | 343° |
| 2026-05-06 02:45 | 35.20479 | -89.76349 | 26080 ft | 281 kts | 343° |
| 2026-05-06 02:46 | 35.22444 | -89.76457 | 26704 ft | 284 kts | 343° |
| 2026-05-06 02:46 | 35.24432 | -89.76565 | 27330 ft | 288 kts | 343° |
| 2026-05-06 02:46 | 35.26463 | -89.76680 | 27834 ft | 296 kts | 344° |
| 2026-05-06 02:46 | 35.28549 | -89.76623 | 28402 ft | 311 kts | 353° |
| 2026-05-06 02:47 | 35.30718 | -89.76118 | 29009 ft | 326 kts | 3° |
| 2026-05-06 02:47 | 35.32892 | -89.75120 | 29608 ft | 342 kts | 14° |
| 2026-05-06 02:47 | 35.34999 | -89.73649 | 30150 ft | 353 kts | 20° |
| 2026-05-06 02:47 | 35.37106 | -89.72086 | 30641 ft | 355 kts | 19° |
| 2026-05-06 02:48 | 35.39241 | -89.70530 | 31110 ft | 358 kts | 18° |
| 2026-05-06 02:48 | 35.41368 | -89.68980 | 31576 ft | 361 kts | 18° |
| 2026-05-06 02:48 | 35.43542 | -89.67383 | 32022 ft | 364 kts | 17° |
| 2026-05-06 02:48 | 35.45725 | -89.65777 | 32453 ft | 367 kts | 17° |
| 2026-05-06 02:49 | 35.47925 | -89.64163 | 32886 ft | 369 kts | 16° |
| 2026-05-06 02:49 | 35.50139 | -89.62538 | 33327 ft | 372 kts | 16° |
| 2026-05-06 02:49 | 35.52371 | -89.60898 | 33702 ft | 376 kts | 17° |
| 2026-05-06 02:49 | 35.54601 | -89.59256 | 34073 ft | 379 kts | 17° |
| 2026-05-06 02:50 | 35.56867 | -89.57586 | 34416 ft | 381 kts | 17° |
| 2026-05-06 02:50 | 35.59152 | -89.55903 | 34753 ft | 384 kts | 16° |
| 2026-05-06 02:50 | 35.61451 | -89.54209 | 35080 ft | 387 kts | 16° |
| 2026-05-06 02:50 | 35.63767 | -89.52479 | 35390 ft | 390 kts | 17° |
| 2026-05-06 02:51 | 35.66087 | -89.50715 | 35678 ft | 393 kts | 17° |
| 2026-05-06 02:51 | 35.68424 | -89.48952 | 35953 ft | 394 kts | 15° |
| 2026-05-06 02:51 | 35.70779 | -89.47214 | 36217 ft | 396 kts | 15° |
| 2026-05-06 02:51 | 35.73118 | -89.45485 | 36477 ft | 398 kts | 15° |
| 2026-05-06 02:52 | 35.75492 | -89.43707 | 36753 ft | 400 kts | 15° |
| 2026-05-06 02:52 | 35.80301 | -89.40106 | 37261 ft | 402 kts | 15° |
| 2026-05-06 02:52 | 35.82667 | -89.38323 | 37782 ft | 394 kts | 14° |
| 2026-05-06 02:53 | 35.84983 | -89.36588 | 38303 ft | 385 kts | 13° |
| 2026-05-06 02:53 | 35.87247 | -89.34898 | 38776 ft | 376 kts | 12° |
| 2026-05-06 02:53 | 35.89456 | -89.33242 | 39219 ft | 366 kts | 12° |
| 2026-05-06 02:53 | 35.91604 | -89.31627 | 39667 ft | 356 kts | 11° |
| 2026-05-06 02:54 | 35.93683 | -89.30065 | 40120 ft | 344 kts | 11° |
| 2026-05-06 02:54 | 35.95693 | -89.28554 | 40575 ft | 332 kts | 9° |
| 2026-05-06 02:54 | 35.97626 | -89.27100 | 41022 ft | 319 kts | 9° |
| 2026-05-06 02:54 | 35.99549 | -89.25684 | 40915 ft | 327 kts | 8° |
| 2026-05-06 02:55 | 36.01532 | -89.24224 | 40940 ft | 337 kts | 10° |
| 2026-05-06 02:55 | 36.03564 | -89.22687 | 40946 ft | 348 kts | 11° |
| 2026-05-06 02:55 | 36.05654 | -89.21097 | 40942 ft | 357 kts | 11° |
| 2026-05-06 02:56 | 36.09990 | -89.17837 | 40942 ft | 375 kts | 12° |
| 2026-05-06 02:56 | 36.14552 | -89.14389 | 40945 ft | 393 kts | 13° |
| 2026-05-06 02:57 | 36.19322 | -89.10784 | 40944 ft | 408 kts | 14° |
| 2026-05-06 02:57 | 36.24236 | -89.07063 | 40950 ft | 423 kts | 15° |
| 2026-05-06 02:58 | 36.29348 | -89.03187 | 40901 ft | 436 kts | 15° |
| 2026-05-06 02:58 | 36.34568 | -88.99223 | 40904 ft | 448 kts | 16° |
| 2026-05-06 02:59 | 36.39959 | -88.95209 | 40904 ft | 455 kts | 15° |
| 2026-05-06 02:59 | 36.45482 | -88.91189 | 40905 ft | 465 kts | 16° |
| 2026-05-06 03:00 | 36.51090 | -88.87026 | 40915 ft | 473 kts | 16° |
| 2026-05-06 03:00 | 36.56767 | -88.82851 | 40934 ft | 480 kts | 17° |
| 2026-05-06 03:01 | 36.62555 | -88.78559 | 40930 ft | 485 kts | 17° |
| 2026-05-06 03:01 | 36.68391 | -88.74241 | 40925 ft | 490 kts | 17° |
| 2026-05-06 03:02 | 36.74243 | -88.69894 | 40973 ft | 494 kts | 17° |
| 2026-05-06 03:02 | 36.80183 | -88.65479 | 40925 ft | 498 kts | 17° |
| 2026-05-06 03:03 | 36.86159 | -88.61025 | 40950 ft | 501 kts | 17° |
| 2026-05-06 03:03 | 36.92175 | -88.56536 | 40958 ft | 504 kts | 18° |
| 2026-05-06 03:04 | 36.98216 | -88.52018 | 40956 ft | 507 kts | 18° |
| 2026-05-06 03:04 | 37.04271 | -88.47484 | 40950 ft | 511 kts | 18° |
| 2026-05-06 03:05 | 37.10392 | -88.42886 | 40942 ft | 513 kts | 18° |
| 2026-05-06 03:05 | 37.16521 | -88.38280 | 40936 ft | 514 kts | 18° |
| 2026-05-06 03:06 | 37.22661 | -88.33653 | 40976 ft | 515 kts | 18° |
| 2026-05-06 03:06 | 37.28804 | -88.29016 | 40932 ft | 517 kts | 19° |
| 2026-05-06 03:07 | 37.34996 | -88.24333 | 40935 ft | 518 kts | 19° |
| 2026-05-06 03:07 | 37.41143 | -88.19675 | 40935 ft | 520 kts | 19° |
| 2026-05-06 03:08 | 37.47347 | -88.14964 | 40953 ft | 520 kts | 19° |
| 2026-05-06 03:08 | 37.53491 | -88.10281 | 40971 ft | 511 kts | 19° |
| 2026-05-06 03:09 | 37.59533 | -88.05680 | 40974 ft | 502 kts | 18° |
| 2026-05-06 03:09 | 37.65428 | -88.01178 | 40968 ft | 494 kts | 18° |
| 2026-05-06 03:10 | 37.71284 | -87.96698 | 40980 ft | 488 kts | 18° |
| 2026-05-06 03:10 | 37.77050 | -87.92280 | 40957 ft | 483 kts | 18° |
| 2026-05-06 03:11 | 37.82792 | -87.87870 | 40955 ft | 479 kts | 18° |
| 2026-05-06 03:12 | 37.93821 | -87.79378 | 40983 ft | 471 kts | 18° |
| 2026-05-06 03:12 | 37.99398 | -87.75073 | 40966 ft | 469 kts | 18° |
| 2026-05-06 03:13 | 38.04965 | -87.70767 | 40965 ft | 467 kts | 18° |
| 2026-05-06 03:13 | 38.10497 | -87.66480 | 40966 ft | 465 kts | 18° |
| 2026-05-06 03:14 | 38.16049 | -87.62185 | 39764 ft | 478 kts | 17° |
| 2026-05-06 03:14 | 38.18908 | -87.59969 | 38356 ft | 479 kts | 17° |
| 2026-05-06 03:14 | 38.21728 | -87.57745 | 36767 ft | 473 kts | 18° |
| 2026-05-06 03:14 | 38.24475 | -87.55594 | 35313 ft | 467 kts | 18° |
| 2026-05-06 03:15 | 38.27237 | -87.53458 | 33921 ft | 461 kts | 19° |
| 2026-05-06 03:15 | 38.29958 | -87.51346 | 32386 ft | 456 kts | 20° |
| 2026-05-06 03:15 | 38.32640 | -87.49243 | 30922 ft | 448 kts | 20° |
| 2026-05-06 03:15 | 38.35267 | -87.47178 | 29446 ft | 438 kts | 20° |
| 2026-05-06 03:16 | 38.37837 | -87.45170 | 27871 ft | 427 kts | 21° |
| 2026-05-06 03:16 | 38.40352 | -87.43210 | 26370 ft | 418 kts | 22° |
| 2026-05-06 03:16 | 38.42779 | -87.41312 | 24967 ft | 410 kts | 23° |
| 2026-05-06 03:16 | 38.45195 | -87.39416 | 23612 ft | 403 kts | 24° |
| 2026-05-06 03:17 | 38.47565 | -87.37554 | 22086 ft | 395 kts | 24° |
| 2026-05-06 03:17 | 38.49881 | -87.35734 | 20595 ft | 385 kts | 25° |
| 2026-05-06 03:17 | 38.52144 | -87.33958 | 19282 ft | 376 kts | 25° |
| 2026-05-06 03:17 | 38.54280 | -87.32273 | 19030 ft | 358 kts | 25° |
| 2026-05-06 03:18 | 38.56364 | -87.30632 | 19014 ft | 343 kts | 25° |
| 2026-05-06 03:18 | 38.58343 | -87.29071 | 18996 ft | 323 kts | 24° |
| 2026-05-06 03:18 | 38.60204 | -87.27603 | 18996 ft | 306 kts | 24° |
| 2026-05-06 03:18 | 38.61993 | -87.26199 | 19000 ft | 300 kts | 23° |
| 2026-05-06 03:19 | 38.63794 | -87.24791 | 19017 ft | 305 kts | 24° |
| 2026-05-06 03:19 | 38.65624 | -87.23365 | 19013 ft | 310 kts | 22° |
| 2026-05-06 03:19 | 38.67507 | -87.21985 | 19024 ft | 313 kts | 22° |
| 2026-05-06 03:19 | 38.69382 | -87.20574 | 19022 ft | 312 kts | 23° |
| 2026-05-06 03:20 | 38.73119 | -87.17784 | 19060 ft | 309 kts | 22° |
| 2026-05-06 03:20 | 38.74958 | -87.16421 | 19058 ft | 308 kts | 22° |
| 2026-05-06 03:20 | 38.76811 | -87.15041 | 19057 ft | 308 kts | 22° |
| 2026-05-06 03:21 | 38.78646 | -87.13669 | 18768 ft | 305 kts | 23° |
| 2026-05-06 03:21 | 38.80494 | -87.12295 | 18220 ft | 307 kts | 24° |
| 2026-05-06 03:21 | 38.82332 | -87.10921 | 17718 ft | 304 kts | 24° |
| 2026-05-06 03:21 | 38.84150 | -87.09562 | 17200 ft | 301 kts | 23° |
| 2026-05-06 03:22 | 38.85956 | -87.08214 | 16735 ft | 298 kts | 23° |
| 2026-05-06 03:22 | 38.87746 | -87.06879 | 16240 ft | 296 kts | 23° |
| 2026-05-06 03:22 | 38.89503 | -87.05562 | 16037 ft | 284 kts | 23° |
| 2026-05-06 03:22 | 38.91175 | -87.04305 | 16017 ft | 275 kts | 22° |
| 2026-05-06 03:23 | 38.92850 | -87.03064 | 16021 ft | 283 kts | 22° |
| 2026-05-06 03:23 | 38.94601 | -87.01766 | 16040 ft | 296 kts | 23° |
| 2026-05-06 03:23 | 38.96392 | -87.00419 | 16030 ft | 298 kts | 23° |
| 2026-05-06 03:23 | 38.98191 | -86.99115 | 16030 ft | 296 kts | 22° |
| 2026-05-06 03:24 | 38.99964 | -86.97857 | 16025 ft | 294 kts | 22° |
| 2026-05-06 03:24 | 39.01752 | -86.96571 | 16029 ft | 293 kts | 22° |
| 2026-05-06 03:24 | 39.03525 | -86.95283 | 16026 ft | 292 kts | 22° |
| 2026-05-06 03:24 | 39.05277 | -86.94013 | 15584 ft | 290 kts | 22° |
| 2026-05-06 03:25 | 39.07041 | -86.92741 | 15123 ft | 289 kts | 22° |
| 2026-05-06 03:25 | 39.08784 | -86.91478 | 14725 ft | 286 kts | 22° |
| 2026-05-06 03:25 | 39.10509 | -86.90227 | 14317 ft | 282 kts | 22° |
| 2026-05-06 03:25 | 39.12198 | -86.88942 | 13897 ft | 281 kts | 24° |
| 2026-05-06 03:26 | 39.13861 | -86.87644 | 13480 ft | 278 kts | 24° |
| 2026-05-06 03:26 | 39.15514 | -86.86375 | 13005 ft | 276 kts | 24° |
| 2026-05-06 03:26 | 39.17151 | -86.85110 | 12552 ft | 274 kts | 24° |
| 2026-05-06 03:26 | 39.18761 | -86.83855 | 12084 ft | 274 kts | 24° |
| 2026-05-06 03:27 | 39.20408 | -86.82573 | 11467 ft | 279 kts | 25° |
| 2026-05-06 03:27 | 39.22087 | -86.81268 | 10863 ft | 282 kts | 25° |
| 2026-05-06 03:27 | 39.23774 | -86.79952 | 10277 ft | 285 kts | 25° |
| 2026-05-06 03:27 | 39.25476 | -86.78624 | 9684 ft | 286 kts | 26° |
| 2026-05-06 03:28 | 39.27140 | -86.77195 | 9045 ft | 288 kts | 31° |
| 2026-05-06 03:28 | 39.28768 | -86.75683 | 8414 ft | 287 kts | 32° |
| 2026-05-06 03:28 | 39.30372 | -86.74209 | 7966 ft | 277 kts | 32° |
| 2026-05-06 03:28 | 39.31916 | -86.72793 | 7603 ft | 267 kts | 32° |
| 2026-05-06 03:29 | 39.33393 | -86.71450 | 7233 ft | 259 kts | 32° |
| 2026-05-06 03:29 | 39.34846 | -86.70119 | 6861 ft | 252 kts | 33° |
| 2026-05-06 03:29 | 39.36267 | -86.68820 | 6505 ft | 246 kts | 33° |
| 2026-05-06 03:29 | 39.37652 | -86.67546 | 6130 ft | 242 kts | 34° |
| 2026-05-06 03:30 | 39.39007 | -86.66290 | 5747 ft | 236 kts | 33° |
| 2026-05-06 03:30 | 39.40320 | -86.65095 | 5366 ft | 231 kts | 30° |
| 2026-05-06 03:30 | 39.41691 | -86.64069 | 5038 ft | 224 kts | 27° |
| 2026-05-06 03:30 | 39.42991 | -86.63098 | 5027 ft | 210 kts | 27° |
| 2026-05-06 03:31 | 39.44250 | -86.62146 | 5029 ft | 211 kts | 27° |
| 2026-05-06 03:31 | 39.45542 | -86.61173 | 5038 ft | 218 kts | 27° |
| 2026-05-06 03:31 | 39.46868 | -86.60161 | 5049 ft | 222 kts | 32° |
| 2026-05-06 03:31 | 39.48004 | -86.58800 | 5046 ft | 224 kts | 45° |
| 2026-05-06 03:32 | 39.49087 | -86.57334 | 5049 ft | 225 kts | 44° |
| 2026-05-06 03:32 | 39.50170 | -86.55927 | 5031 ft | 224 kts | 44° |
| 2026-05-06 03:32 | 39.51264 | -86.54466 | 5031 ft | 227 kts | 44° |
| 2026-05-06 03:32 | 39.52373 | -86.52997 | 5037 ft | 228 kts | 43° |
| 2026-05-06 03:33 | 39.53480 | -86.51531 | 5041 ft | 226 kts | 43° |
| 2026-05-06 03:33 | 39.54556 | -86.50080 | 5047 ft | 221 kts | 44° |
| 2026-05-06 03:33 | 39.55631 | -86.48670 | 5035 ft | 218 kts | 43° |
| 2026-05-06 03:33 | 39.56716 | -86.47295 | 5034 ft | 218 kts | 41° |
| 2026-05-06 03:34 | 39.57829 | -86.45948 | 5038 ft | 219 kts | 39° |
| 2026-05-06 03:34 | 39.58947 | -86.44616 | 4922 ft | 216 kts | 40° |
| 2026-05-06 03:34 | 39.60052 | -86.43209 | 4116 ft | 231 kts | 43° |
| 2026-05-06 03:34 | 39.61161 | -86.41756 | 3266 ft | 212 kts | 43° |
| 2026-05-06 03:35 | 39.62091 | -86.40585 | 2997 ft | 165 kts | 41° |
| 2026-05-06 03:35 | 39.62871 | -86.39595 | 2275 ft | 156 kts | 42° |
| 2026-05-06 03:35 | 39.63605 | -86.38655 | 1884 ft | 136 kts | 42° |
| 2026-05-06 03:35 | 39.64258 | -86.37819 | 1961 ft | 133 kts | 41° |
| 2026-05-06 03:36 | 39.64883 | -86.36878 | 2129 ft | 140 kts | 50° |
| 2026-05-06 03:36 | 39.65370 | -86.36033 | 2406 ft | 110 kts | 46° |
| 2026-05-06 03:36 | 39.65961 | -86.35385 | 2207 ft | 111 kts | 37° |
| 2026-05-06 03:36 | 39.66548 | -86.34743 | 2152 ft | 108 kts | 37° |
| 2026-05-06 03:37 | 39.67098 | -86.34105 | 2135 ft | 104 kts | 40° |
| 2026-05-06 03:37 | 39.67620 | -86.33460 | 2057 ft | 106 kts | 42° |
| 2026-05-06 03:37 | 39.68164 | -86.32757 | 1621 ft | 110 kts | 37° |
| 2026-05-06 03:37 | 39.68741 | -86.32105 | 1185 ft | 110 kts | 46° |
| 2026-05-06 03:38 | 39.69282 | -86.31318 | 1158 ft | 125 kts | 44° |
| 2026-05-06 03:38 | 39.69988 | -86.30481 | 920 ft | 146 kts | 43° |
| 2026-05-06 03:38 | 39.70682 | -86.29599 | 791 ft | 118 kts | 43° |
| 2026-05-06 03:38 | 39.71157 | -86.29011 | 784 ft | 66 kts | 44° |